McClusky, North Dakota
Current Conditions -  °F | °C
As of 2:15 AM on Friday 24 Oct 2014 (Local Time) from K5H4 Reporting Station
Clear Clear  
Wind Chill: 40°   Ceiling: Unl
Heat Index: 45°   Visibility: 10mi
Dew Point: 36°   Wind: 8mph
Humidity: 71%   Direction: 230°SW
Pressure: 29.77"   Gusts: NA
Location:  47.49°N, 100.44°W
Report Text: K5H4 240715Z AUTO 23007KT 10SM CLR 07/02 A2977 RMK AO2
Loading
Personal Weather Stations






























Interactive Weather Map
Tropical Storm Tracking
New forecast layout! Learn more

10-Day Weather Forecast

Advertisements
Track Severe Weather on mobile